createdAt,value
2022-11-07T00:04:06.124Z,9.50
2022-11-07T00:09:08.981Z,9.48
2022-11-07T00:14:14.207Z,9.73
2022-11-07T00:19:19.157Z,9.77
2022-11-07T00:24:21.913Z,9.60
2022-11-07T00:29:25.870Z,9.72
2022-11-07T00:34:28.654Z,9.50
2022-11-07T00:39:31.415Z,9.63
2022-11-07T00:44:35.431Z,9.49
2022-11-07T00:49:38.231Z,9.63
2022-11-07T00:54:41.135Z,9.71
2022-11-07T00:59:45.274Z,9.93
2022-11-07T01:05:05.376Z,9.94
2022-11-07T01:10:09.136Z,9.88
2022-11-07T01:15:13.495Z,9.82
2022-11-07T01:20:16.769Z,9.84
2022-11-07T01:25:19.548Z,9.87
2022-11-07T01:30:23.826Z,9.75
2022-11-07T01:35:26.703Z,9.98
2022-11-07T01:40:30.122Z,9.95
2022-11-07T01:45:35.431Z,9.94
2022-11-07T01:50:38.364Z,10.03
2022-11-07T01:55:41.266Z,9.83
2022-11-07T02:00:45.487Z,10.09
2022-11-07T02:05:53.368Z,9.71
2022-11-07T02:11:00.038Z,10.08
2022-11-07T02:16:05.920Z,9.85
2022-11-07T02:21:15.285Z,10.17
2022-11-07T02:26:20.314Z,9.72
2022-11-07T02:31:23.086Z,9.95
2022-11-07T02:36:26.459Z,10.22
2022-11-07T02:41:35.007Z,9.98
2022-11-07T02:46:38.426Z,10.05
2022-11-07T02:51:41.188Z,10.01
2022-11-07T02:56:45.342Z,9.93
2022-11-07T03:01:48.193Z,9.60
2022-11-07T03:06:51.479Z,9.97
2022-11-07T03:11:55.563Z,10.08
2022-11-07T03:16:58.421Z,10.00
2022-11-07T03:22:01.191Z,9.88
2022-11-07T03:27:05.231Z,9.99
2022-11-07T03:32:08.867Z,10.37
2022-11-07T03:37:11.627Z,10.13
2022-11-07T03:42:15.563Z,10.08
2022-11-07T03:47:18.363Z,10.23
2022-11-07T03:52:21.203Z,10.33
2022-11-07T03:57:25.385Z,9.91
2022-11-07T04:02:28.239Z,10.19
2022-11-07T04:07:31.129Z,10.16
2022-11-07T04:13:04.294Z,10.38
2022-11-07T04:18:07.054Z,9.91
2022-11-07T04:23:09.865Z,10.19
2022-11-07T04:28:16.168Z,10.08
2022-11-07T04:33:19.123Z,10.38
2022-11-07T04:38:21.943Z,9.97
2022-11-07T04:43:28.483Z,10.28
2022-11-07T04:48:31.240Z,10.04
2022-11-07T04:53:34.095Z,10.29
2022-11-07T04:58:38.280Z,10.35
2022-11-07T05:03:42.229Z,10.13
2022-11-07T05:08:45.162Z,10.11
2022-11-07T05:13:49.093Z,10.09
2022-11-07T05:18:51.815Z,9.75
2022-11-07T05:23:54.406Z,9.97
2022-11-07T05:28:58.524Z,10.20
2022-11-07T05:34:01.284Z,10.16
2022-11-07T05:39:03.880Z,10.07
2022-11-07T05:44:08.208Z,10.20
2022-11-07T05:49:10.944Z,10.12
2022-11-07T05:54:13.529Z,10.34
2022-11-07T05:59:17.710Z,9.96
2022-11-07T06:04:20.584Z,10.39
2022-11-07T06:09:23.383Z,10.17
2022-11-07T06:14:29.013Z,10.08
2022-11-07T06:19:31.773Z,10.11
2022-11-07T06:24:34.360Z,10.09
2022-11-07T06:29:38.488Z,9.96
2022-11-07T06:34:41.278Z,10.30
2022-11-07T06:39:44.036Z,10.30
2022-11-07T06:44:47.991Z,10.07
2022-11-07T06:49:50.764Z,10.07
2022-11-07T06:54:53.350Z,10.06
2022-11-07T06:59:57.447Z,10.31
2022-11-07T07:05:00.268Z,10.26
2022-11-07T07:10:03.036Z,10.25
2022-11-07T07:15:07.918Z,10.37
2022-11-07T07:20:12.119Z,10.10
2022-11-07T07:25:14.915Z,10.15
2022-11-07T07:30:19.262Z,10.61
2022-11-07T07:35:22.695Z,10.67
2022-11-07T07:40:25.475Z,10.50
2022-11-07T07:45:29.676Z,10.68
2022-11-07T07:50:32.475Z,10.65
2022-11-07T07:55:36.098Z,10.66
2022-11-07T08:00:40.391Z,11.00
2022-11-07T08:05:43.159Z,10.69
2022-11-07T08:10:45.952Z,11.23
2022-11-07T08:15:50.163Z,10.80
2022-11-07T08:20:54.690Z,10.90
2022-11-07T08:25:59.495Z,11.25
2022-11-07T08:31:05.870Z,11.51
2022-11-07T08:36:09.575Z,11.54
2022-11-07T08:41:12.341Z,11.88
2022-11-07T08:46:16.705Z,11.70
2022-11-07T08:51:19.540Z,11.35
2022-11-07T08:56:22.315Z,12.09
2022-11-07T09:01:26.667Z,12.32
2022-11-07T09:06:29.468Z,13.05
2022-11-07T09:11:32.301Z,13.17
2022-11-07T09:16:36.491Z,12.69
2022-11-07T09:21:39.369Z,12.84
2022-11-07T09:26:42.141Z,13.58
2022-11-07T09:31:46.266Z,13.13
2022-11-07T09:36:49.071Z,13.22
2022-11-07T09:42:00.120Z,12.79
2022-11-07T09:47:08.838Z,12.17
2022-11-07T09:52:18.361Z,12.66
2022-11-07T09:57:21.500Z,12.80
2022-11-07T10:02:31.320Z,13.14
2022-11-07T10:07:44.702Z,12.43
2022-11-07T10:13:16.379Z,12.59
2022-11-07T10:18:29.784Z,12.48
2022-11-07T10:23:46.614Z,12.36
2022-11-07T10:28:55.234Z,12.50
2022-11-07T10:34:03.726Z,12.59
2022-11-07T10:39:15.074Z,12.60
2022-11-07T10:44:24.635Z,12.74
2022-11-07T10:49:30.346Z,12.82
2022-11-07T10:54:33.400Z,12.81
2022-11-07T10:59:39.037Z,12.67
2022-11-07T11:04:51.132Z,12.88
2022-11-07T11:09:56.068Z,12.98
2022-11-07T11:15:13.296Z,12.77
2022-11-07T11:20:33.271Z,13.04
2022-11-07T11:25:45.422Z,12.81
2022-11-07T11:30:54.057Z,12.62
2022-11-07T11:36:02.954Z,12.84
2022-11-07T11:41:17.391Z,13.49
2022-11-07T11:46:28.840Z,13.30
2022-11-07T11:51:40.410Z,13.11
2022-11-07T11:56:52.462Z,13.18
2022-11-07T12:02:02.731Z,12.74
2022-11-07T12:07:24.582Z,12.39
2022-11-07T12:12:32.973Z,11.84
2022-11-07T12:17:42.910Z,11.70
2022-11-07T12:22:58.060Z,12.48
2022-11-07T12:28:11.715Z,13.08
2022-11-07T12:33:28.205Z,12.81
2022-11-07T12:38:53.101Z,12.23
2022-11-07T12:44:10.336Z,11.34
2022-11-07T12:49:30.656Z,11.43
2022-11-07T12:54:48.016Z,11.57
2022-11-07T12:59:56.688Z,11.85
2022-11-07T13:05:05.792Z,11.84
2022-11-07T13:10:16.892Z,11.84
2022-11-07T13:15:20.142Z,12.01
2022-11-07T13:20:29.308Z,11.64
2022-11-07T13:25:34.913Z,11.95
2022-11-07T13:30:40.163Z,12.39
2022-11-07T13:35:54.685Z,12.73
2022-11-07T13:41:03.838Z,12.60
2022-11-07T13:46:09.416Z,13.00
2022-11-07T13:51:17.946Z,12.59
2022-11-07T13:56:29.714Z,12.73
2022-11-07T14:01:43.202Z,12.71
2022-11-07T14:06:47.209Z,12.73
2022-11-07T14:11:53.549Z,12.99
2022-11-07T14:17:00.423Z,12.79
2022-11-07T14:22:03.577Z,12.51
2022-11-07T14:27:14.931Z,12.61
2022-11-07T14:32:18.835Z,12.72
2022-11-07T14:37:24.056Z,12.44
2022-11-07T14:42:28.251Z,12.69
2022-11-07T14:47:33.927Z,12.53
2022-11-07T14:52:40.848Z,12.78
2022-11-07T14:57:45.036Z,12.95
2022-11-07T15:02:50.233Z,12.70
2022-11-07T15:07:53.333Z,12.89
2022-11-07T15:12:59.761Z,12.68
2022-11-07T15:18:05.075Z,12.58
2022-11-07T15:23:28.713Z,12.94
2022-11-07T15:28:46.059Z,12.92
2022-11-07T15:33:49.421Z,13.08
2022-11-07T15:38:54.047Z,12.92
2022-11-07T15:43:58.216Z,12.75
2022-11-07T15:49:02.474Z,12.84
2022-11-07T15:54:05.455Z,13.00
2022-11-07T15:59:18.536Z,12.83
2022-11-07T16:04:21.313Z,12.89
2022-11-07T16:09:24.660Z,12.96
2022-11-07T16:14:43.578Z,12.77
2022-11-07T16:19:47.224Z,12.76
2022-11-07T16:24:50.204Z,12.74
2022-11-07T16:29:54.328Z,12.83
2022-11-07T16:34:57.083Z,12.97
2022-11-07T16:39:59.919Z,12.67
2022-11-07T16:45:04.370Z,12.74
2022-11-07T16:50:08.236Z,12.90
2022-11-07T16:55:16.035Z,12.92
2022-11-07T17:00:22.795Z,12.99
2022-11-07T17:05:25.659Z,12.93
2022-11-07T17:10:28.440Z,12.81
2022-11-07T17:15:32.627Z,12.91
2022-11-07T17:20:50.427Z,12.81
2022-11-07T17:25:55.232Z,12.82
2022-11-07T17:31:00.173Z,12.78
2022-11-07T17:36:02.972Z,12.68
2022-11-07T17:41:18.021Z,12.79
2022-11-07T17:46:26.120Z,12.65
2022-11-07T17:51:29.746Z,12.91
2022-11-07T17:56:34.456Z,12.86
2022-11-07T18:01:40.324Z,12.65
2022-11-07T18:06:44.402Z,12.80
2022-11-07T18:11:47.247Z,12.48
2022-11-07T18:16:51.562Z,12.80
2022-11-07T18:21:54.368Z,12.77
2022-11-07T18:26:57.214Z,12.74
2022-11-07T18:32:01.444Z,12.61
2022-11-07T18:37:04.243Z,12.62
2022-11-07T18:42:07.211Z,12.53
2022-11-07T18:47:12.190Z,12.23
2022-11-07T18:52:15.063Z,12.10
2022-11-07T18:57:17.897Z,12.15
2022-11-07T19:02:22.279Z,12.17
2022-11-07T19:07:25.108Z,12.38
2022-11-07T19:12:29.556Z,12.39
2022-11-07T19:17:34.038Z,12.38
2022-11-07T19:22:36.846Z,12.27
2022-11-07T19:27:41.216Z,12.42
2022-11-07T19:32:45.742Z,12.49
2022-11-07T19:37:48.584Z,12.43
2022-11-07T19:42:51.766Z,12.59
2022-11-07T19:47:56.141Z,12.51
2022-11-07T19:52:58.961Z,12.63
2022-11-07T19:58:01.849Z,12.77
2022-11-07T20:03:06.082Z,12.68
2022-11-07T20:08:08.935Z,12.58
2022-11-07T20:13:11.778Z,12.72
2022-11-07T20:18:15.978Z,12.52
2022-11-07T20:23:19.200Z,12.71
2022-11-07T20:28:22.393Z,12.69
2022-11-07T20:33:26.569Z,12.58
2022-11-07T20:38:30.116Z,12.76
2022-11-07T20:43:33.830Z,12.88
2022-11-07T20:48:38.352Z,12.88
2022-11-07T20:53:46.773Z,12.89
2022-11-07T20:58:51.706Z,12.88
2022-11-07T21:03:55.855Z,12.78
2022-11-07T21:08:59.139Z,13.11
2022-11-07T21:14:01.936Z,12.96
2022-11-07T21:19:06.770Z,12.96
2022-11-07T21:24:10.022Z,13.08
2022-11-07T21:29:15.316Z,12.97
2022-11-07T21:34:19.443Z,12.77
2022-11-07T21:39:22.209Z,13.07
2022-11-07T21:44:25.069Z,12.89
2022-11-07T21:49:30.372Z,12.98
2022-11-07T21:54:33.280Z,12.92
2022-11-07T21:59:36.063Z,13.15
2022-11-07T22:04:40.384Z,13.15
2022-11-07T22:09:43.178Z,13.00
2022-11-07T22:14:49.015Z,13.09
2022-11-07T22:19:53.145Z,13.28
2022-11-07T22:24:56.370Z,13.18
2022-11-07T22:30:01.940Z,13.13
2022-11-07T22:35:09.661Z,13.24
2022-11-07T22:40:17.878Z,13.15
2022-11-07T22:45:23.335Z,13.28
2022-11-07T22:50:27.980Z,13.36
2022-11-07T22:55:36.351Z,12.95
2022-11-07T23:00:39.500Z,13.24
2022-11-07T23:05:44.060Z,13.14
2022-11-07T23:10:47.091Z,12.79
2022-11-07T23:15:50.094Z,12.75
2022-11-07T23:21:11.667Z,13.12
2022-11-07T23:26:16.929Z,12.67
2022-11-07T23:31:20.631Z,12.77
2022-11-07T23:36:24.983Z,12.69
2022-11-07T23:41:29.093Z,12.51
2022-11-07T23:46:49.695Z,12.42
2022-11-07T23:51:54.256Z,12.20
2022-11-07T23:56:57.052Z,12.22
